createdAt,value
2022-09-20T00:00:31.193Z,0.9
2022-09-20T00:01:40.922Z,1
2022-09-20T00:02:48.493Z,1.1
2022-09-20T00:03:58.189Z,1.1
2022-09-20T00:05:07.867Z,1.1
2022-09-20T00:06:15.495Z,1.2
2022-09-20T00:07:25.149Z,1.6
2022-09-20T00:08:32.841Z,1.5
2022-09-20T00:09:41.515Z,1.4
2022-09-20T00:10:51.164Z,1.6
2022-09-20T00:11:59.842Z,1.8
2022-09-20T00:13:09.519Z,1.5
2022-09-20T00:14:18.197Z,1.8
2022-09-20T00:15:25.871Z,1.8
2022-09-20T00:16:35.591Z,1.8
2022-09-20T00:17:44.215Z,1.8
2022-09-20T00:18:53.873Z,1.5
2022-09-20T00:20:03.513Z,1.6
2022-09-20T00:21:11.225Z,1.5
2022-09-20T00:22:20.891Z,1.2
2022-09-20T00:23:29.543Z,1.2
2022-09-20T00:24:37.215Z,1.1
2022-09-20T00:25:46.903Z,1
2022-09-20T00:26:55.588Z,0.8
2022-09-20T00:28:04.267Z,0.9
2022-09-20T00:29:13.949Z,1
2022-09-20T00:30:21.642Z,1
2022-09-20T00:31:31.341Z,0.8
2022-09-20T00:32:39.967Z,0.8
2022-09-20T00:33:48.676Z,1
2022-09-20T00:34:58.379Z,1.1
2022-09-20T00:36:06.035Z,1
2022-09-20T00:37:14.694Z,0.9
2022-09-20T00:38:24.389Z,0.9
2022-09-20T00:39:32.045Z,0.8
2022-09-20T00:40:41.771Z,0.8
2022-09-20T00:41:51.375Z,0.8
2022-09-20T00:43:00.034Z,1
2022-09-20T00:44:09.741Z,0.7
2022-09-20T00:45:17.404Z,0.8
2022-09-20T00:46:26.139Z,0.7
2022-09-20T00:47:35.707Z,0.8
2022-09-20T00:48:43.357Z,0.9
2022-09-20T00:49:53.044Z,0.6
2022-09-20T00:51:01.717Z,0.7
2022-09-20T00:52:09.359Z,0.7
2022-09-20T00:53:19.028Z,0.8
2022-09-20T00:54:26.707Z,0.9
2022-09-20T00:55:36.387Z,0.9
2022-09-20T00:56:46.040Z,0.9
2022-09-20T00:57:55.696Z,1.1
2022-09-20T00:59:05.352Z,0.8
2022-09-20T01:00:15.006Z,0.9
2022-09-20T01:01:22.748Z,0.9
2022-09-20T01:02:32.428Z,0.9
2022-09-20T01:03:40.000Z,0.9
2022-09-20T01:04:48.651Z,0.9
2022-09-20T01:05:58.308Z,1.2
2022-09-20T01:07:05.985Z,1
2022-09-20T01:08:15.637Z,0.8
2022-09-20T01:09:25.323Z,0.8
2022-09-20T01:10:34.013Z,1
2022-09-20T01:11:43.674Z,0.9
2022-09-20T01:12:51.332Z,1
2022-09-20T01:14:00.975Z,1.3
2022-09-20T01:15:10.632Z,0.8
2022-09-20T01:16:18.337Z,0.9
2022-09-20T01:17:27.022Z,0.9
2022-09-20T01:18:35.717Z,0.9
2022-09-20T01:19:44.353Z,0.7
2022-09-20T01:20:54.009Z,1.1
2022-09-20T01:22:01.665Z,1
2022-09-20T01:23:10.333Z,1.1
2022-09-20T01:24:20.050Z,1
2022-09-20T01:25:27.711Z,1.2
2022-09-20T01:26:37.412Z,1.3
2022-09-20T01:27:46.057Z,1.1
2022-09-20T01:28:53.710Z,1.2
2022-09-20T01:30:03.405Z,1.2
2022-09-20T01:31:12.237Z,1.1
2022-09-20T01:32:21.774Z,1.2
2022-09-20T01:33:31.425Z,1.1
2022-09-20T01:34:40.111Z,1.3
2022-09-20T01:35:49.773Z,1.3
2022-09-20T01:36:58.428Z,1.1
2022-09-20T01:38:06.082Z,1.2
2022-09-20T01:39:15.752Z,1.1
2022-09-20T01:40:23.445Z,1.1
2022-09-20T01:41:33.102Z,1.3
2022-09-20T01:42:42.752Z,1
2022-09-20T01:43:51.427Z,1.2
2022-09-20T01:45:01.065Z,1.3
2022-09-20T01:46:09.747Z,1.5
2022-09-20T01:47:19.374Z,1.3
2022-09-20T01:48:29.034Z,1.1
2022-09-20T01:49:37.682Z,1.3
2022-09-20T01:50:47.360Z,1.3
2022-09-20T01:51:54.991Z,1.1
2022-09-20T01:53:03.676Z,1.2
2022-09-20T01:54:13.338Z,1.2
2022-09-20T01:55:22.036Z,1.3
2022-09-20T01:56:31.735Z,1.1
2022-09-20T01:57:41.386Z,1.2
2022-09-20T01:59:07.125Z,1.2
2022-09-20T02:00:00.732Z,1
2022-09-20T02:01:08.524Z,1.3
2022-09-20T02:02:17.168Z,1.2
2022-09-20T02:03:26.779Z,1.1
2022-09-20T02:04:34.451Z,1.1
2022-09-20T02:05:44.120Z,1.1
2022-09-20T02:06:52.790Z,1.2
2022-09-20T02:08:00.433Z,1.3
2022-09-20T02:09:10.100Z,1.3
2022-09-20T02:10:18.809Z,1
2022-09-20T02:11:27.468Z,1.1
2022-09-20T02:12:37.109Z,1.1
2022-09-20T02:13:45.790Z,0.8
2022-09-20T02:14:55.451Z,0.9
2022-09-20T02:16:04.174Z,0.8
2022-09-20T02:17:11.792Z,1
2022-09-20T02:18:21.444Z,1.1
2022-09-20T02:19:30.086Z,0.9
2022-09-20T02:20:38.748Z,1.4
2022-09-20T02:21:48.425Z,1
2022-09-20T02:22:57.157Z,1.2
2022-09-20T02:24:05.750Z,1.2
2022-09-20T02:25:14.395Z,1.3
2022-09-20T02:26:22.047Z,1.3
2022-09-20T02:27:31.890Z,1
2022-09-20T02:28:39.573Z,1
2022-09-20T02:29:48.224Z,1.3
2022-09-20T02:30:57.899Z,1.6
2022-09-20T02:32:05.621Z,1.4
2022-09-20T02:33:15.213Z,1.2
2022-09-20T02:34:23.880Z,1.3
2022-09-20T02:35:32.612Z,1.3
2022-09-20T02:36:42.265Z,1.3
2022-09-20T02:37:49.929Z,1.2
2022-09-20T02:38:58.641Z,1
2022-09-20T02:40:08.333Z,1.2
2022-09-20T02:41:15.927Z,0.8
2022-09-20T02:42:25.595Z,1.1
2022-09-20T02:43:34.234Z,1
2022-09-20T02:44:42.931Z,0.9
2022-09-20T02:45:52.725Z,0.8
2022-09-20T02:47:00.313Z,0.9
2022-09-20T02:48:08.976Z,0.8
2022-09-20T02:49:18.655Z,0.8
2022-09-20T02:50:27.367Z,0.7
2022-09-20T02:51:37.030Z,0.7
2022-09-20T02:52:45.677Z,1
2022-09-20T02:53:53.331Z,0.8
2022-09-20T02:55:03.009Z,1
2022-09-20T02:56:10.661Z,0.9
2022-09-20T02:57:19.338Z,1
2022-09-20T02:58:29.005Z,1
2022-09-20T02:59:36.674Z,0.8
2022-09-20T03:00:47.349Z,0.9
2022-09-20T03:01:57.060Z,0.8
2022-09-20T03:03:04.685Z,0.8
2022-09-20T03:04:14.410Z,0.7
2022-09-20T03:05:22.042Z,1
2022-09-20T03:06:31.703Z,1
2022-09-20T03:07:41.395Z,0.9
2022-09-20T03:08:49.046Z,0.8
2022-09-20T03:09:58.725Z,0.7
2022-09-20T03:11:07.393Z,0.8
2022-09-20T03:12:15.005Z,0.8
2022-09-20T03:13:24.738Z,0.8
2022-09-20T03:14:33.381Z,1.1
2022-09-20T03:15:42.058Z,0.8
2022-09-20T03:16:52.522Z,1
2022-09-20T03:17:59.412Z,0.8
2022-09-20T03:19:09.119Z,1
2022-09-20T03:20:18.783Z,0.8
2022-09-20T03:21:27.443Z,0.9
2022-09-20T03:22:37.106Z,0.9
2022-09-20T03:23:45.760Z,0.8
2022-09-20T03:24:55.455Z,0.8
2022-09-20T03:26:05.125Z,0.7
2022-09-20T03:27:12.815Z,1.1
2022-09-20T03:28:22.455Z,0.8
2022-09-20T03:29:31.115Z,0.6
2022-09-20T03:30:40.905Z,0.8
2022-09-20T03:31:50.602Z,0.7
2022-09-20T03:32:59.194Z,0.7
2022-09-20T03:34:07.855Z,0.8
2022-09-20T03:35:17.495Z,0.9
2022-09-20T03:36:25.173Z,0.9
2022-09-20T03:37:34.843Z,0.7
2022-09-20T03:38:43.503Z,0.7
2022-09-20T03:39:52.141Z,0.9
2022-09-20T03:41:01.810Z,0.9
2022-09-20T03:42:10.502Z,0.7
2022-09-20T03:43:18.183Z,0.8
2022-09-20T03:44:27.834Z,0.8
2022-09-20T03:45:36.641Z,0.9
2022-09-20T03:46:46.244Z,0.7
2022-09-20T03:47:54.920Z,0.9
2022-09-20T03:49:04.579Z,0.8
2022-09-20T03:50:14.218Z,0.9
2022-09-20T03:51:21.880Z,0.7
2022-09-20T03:52:31.553Z,0.8
2022-09-20T03:53:40.249Z,0.8
2022-09-20T03:54:49.899Z,0.7
2022-09-20T03:55:59.549Z,0.8
2022-09-20T03:57:07.257Z,0.7
2022-09-20T03:58:16.918Z,1
2022-09-20T03:59:24.594Z,1.1
2022-09-20T04:00:32.228Z,1
2022-09-20T04:01:42.099Z,0.8
2022-09-20T04:02:50.547Z,0.8
2022-09-20T04:03:59.242Z,0.9
2022-09-20T04:05:08.935Z,0.9
2022-09-20T04:06:16.596Z,1.1
2022-09-20T04:07:26.251Z,0.8
2022-09-20T04:08:39.411Z,0.8
2022-09-20T04:09:43.572Z,0.8
2022-09-20T04:10:53.258Z,0.8
2022-09-20T04:12:01.947Z,0.8
2022-09-20T04:13:10.597Z,1
2022-09-20T04:14:20.278Z,0.9
2022-09-20T04:15:28.980Z,0.9
2022-09-20T04:16:38.782Z,0.9
2022-09-20T04:17:47.322Z,1
2022-09-20T04:18:57.027Z,1
2022-09-20T04:20:06.724Z,1.1
2022-09-20T04:21:15.378Z,0.9
2022-09-20T04:22:24.109Z,1
2022-09-20T04:23:33.763Z,1
2022-09-20T04:24:42.422Z,0.7
2022-09-20T04:25:52.106Z,0.8
2022-09-20T04:27:00.761Z,0.9
2022-09-20T04:28:09.442Z,1.1
2022-09-20T04:29:19.093Z,0.8
2022-09-20T04:30:26.788Z,0.8
2022-09-20T04:31:35.578Z,1
2022-09-20T04:32:45.187Z,0.9
2022-09-20T04:33:53.017Z,1.1
2022-09-20T04:35:01.682Z,0.7
2022-09-20T04:36:11.375Z,1.1
2022-09-20T04:37:21.036Z,1.3
2022-09-20T04:38:30.709Z,1.2
2022-09-20T04:39:38.399Z,1
2022-09-20T04:40:48.194Z,0.9
2022-09-20T04:41:57.840Z,1
2022-09-20T04:43:06.491Z,1
2022-09-20T04:44:16.189Z,1
2022-09-20T04:45:25.917Z,0.9
2022-09-20T04:46:35.565Z,1
2022-09-20T04:47:45.269Z,1
2022-09-20T04:48:54.925Z,1.1
2022-09-20T04:50:03.578Z,1.1
2022-09-20T04:51:13.344Z,1
2022-09-20T04:52:22.030Z,1.2
2022-09-20T04:53:31.704Z,1
2022-09-20T04:54:41.384Z,1.2
2022-09-20T04:55:49.041Z,1.1
2022-09-20T04:56:58.801Z,0.9
2022-09-20T04:58:07.478Z,1.2
2022-09-20T04:59:18.166Z,1.3
2022-09-20T05:00:27.824Z,0.9
2022-09-20T05:01:36.529Z,0.8
2022-09-20T05:02:46.453Z,1.1
2022-09-20T05:03:55.041Z,1.1
2022-09-20T05:05:03.684Z,1.3
2022-09-20T05:06:13.393Z,1.1
2022-09-20T05:07:23.053Z,1.4
2022-09-20T05:08:31.759Z,1.1
2022-09-20T05:09:41.411Z,1.1
2022-09-20T05:10:51.098Z,1
2022-09-20T05:12:00.910Z,1
2022-09-20T05:13:09.620Z,1.1
2022-09-20T05:14:17.365Z,1
2022-09-20T05:15:27.982Z,1.2
2022-09-20T05:16:38.636Z,1
2022-09-20T05:17:46.296Z,1.2
2022-09-20T05:18:55.997Z,1.2
2022-09-20T05:20:03.688Z,1.1
2022-09-20T05:21:13.363Z,1.3
2022-09-20T05:22:23.029Z,1.3
2022-09-20T05:23:30.673Z,1.4
2022-09-20T05:24:40.372Z,1.2
2022-09-20T05:25:49.083Z,1.4
2022-09-20T05:26:58.748Z,1.4
2022-09-20T05:28:08.450Z,1.2
2022-09-20T05:29:17.144Z,1.4
2022-09-20T05:30:26.807Z,1.3
2022-09-20T05:31:36.519Z,1.4
2022-09-20T05:32:45.164Z,1.3
2022-09-20T05:33:54.849Z,1.6
2022-09-20T05:35:02.535Z,1
2022-09-20T05:36:12.256Z,1.2
2022-09-20T05:37:22.067Z,1.2
2022-09-20T05:38:30.766Z,1.2
2022-09-20T05:39:40.413Z,1.4
2022-09-20T05:40:49.092Z,1
2022-09-20T05:41:56.755Z,1.4
2022-09-20T05:43:06.509Z,1.2
2022-09-20T05:44:16.169Z,1.2
2022-09-20T05:45:24.830Z,1.2
2022-09-20T05:46:34.514Z,1.5
2022-09-20T05:47:44.172Z,1.2
2022-09-20T05:48:53.869Z,1.2
2022-09-20T05:50:01.529Z,1.2
2022-09-20T05:51:11.199Z,1.3
2022-09-20T05:52:20.883Z,1.2
2022-09-20T05:53:28.543Z,1.5
2022-09-20T05:54:38.244Z,1.2
2022-09-20T05:55:45.899Z,1.3
2022-09-20T05:56:55.568Z,1.2
2022-09-20T05:58:05.235Z,1.2
2022-09-20T05:59:15.196Z,1.2
2022-09-20T06:00:24.705Z,1.2
2022-09-20T06:01:33.400Z,1.3
2022-09-20T06:02:42.077Z,1.3
2022-09-20T06:03:51.762Z,1.2
2022-09-20T06:05:00.428Z,1.3
2022-09-20T06:06:09.225Z,1.1
2022-09-20T06:07:18.883Z,1.3
2022-09-20T06:08:26.594Z,1.1
2022-09-20T06:09:37.243Z,0.8
2022-09-20T06:10:46.915Z,0.9
2022-09-20T06:11:54.626Z,0.8
2022-09-20T06:13:04.321Z,0.8
2022-09-20T06:14:13.068Z,0.9
2022-09-20T06:15:21.768Z,0.8
2022-09-20T06:16:31.499Z,0.8
2022-09-20T06:17:39.170Z,0.6
2022-09-20T06:18:48.880Z,0.9
2022-09-20T06:19:57.572Z,0.7
2022-09-20T06:21:06.260Z,0.7
2022-09-20T06:22:15.958Z,0.7
2022-09-20T06:23:24.738Z,0.7
2022-09-20T06:24:34.482Z,0.7
2022-09-20T06:25:44.137Z,0.8
2022-09-20T06:26:51.828Z,0.8
2022-09-20T06:28:01.497Z,0.8
2022-09-20T06:29:10.329Z,0.6
2022-09-20T06:30:17.892Z,0.8
2022-09-20T06:31:27.552Z,0.7
2022-09-20T06:32:37.233Z,0.8
2022-09-20T06:33:45.932Z,0.6
2022-09-20T06:34:55.630Z,0.6
2022-09-20T06:36:05.406Z,0.6
2022-09-20T06:37:15.113Z,1
2022-09-20T06:38:23.782Z,0.8
2022-09-20T06:39:31.437Z,0.7
2022-09-20T06:40:41.299Z,0.7
2022-09-20T06:41:48.973Z,0.6
2022-09-20T06:42:58.639Z,0.7
2022-09-20T06:44:08.410Z,0.6
2022-09-20T06:45:16.018Z,0.6
2022-09-20T06:46:25.736Z,0.8
2022-09-20T06:47:38.596Z,1
2022-09-20T06:48:45.105Z,0.8
2022-09-20T06:49:54.794Z,0.5
2022-09-20T06:51:02.471Z,0.9
2022-09-20T06:52:12.179Z,0.7
2022-09-20T06:53:21.866Z,0.5
2022-09-20T06:54:30.571Z,0.6
2022-09-20T06:55:40.263Z,0.7
2022-09-20T06:56:49.978Z,0.9
2022-09-20T06:57:57.628Z,0.9
2022-09-20T06:59:07.418Z,0.8
2022-09-20T07:00:16.991Z,0.7
2022-09-20T07:01:30.380Z,1
2022-09-20T07:02:35.396Z,0.7
2022-09-20T07:03:43.086Z,0.9
2022-09-20T07:04:52.777Z,0.9
2022-09-20T07:06:02.420Z,0.9
2022-09-20T07:07:11.074Z,0.8
2022-09-20T07:08:20.832Z,1
2022-09-20T07:09:29.701Z,0.9
2022-09-20T07:10:38.397Z,0.9
2022-09-20T07:11:48.184Z,1
2022-09-20T07:12:55.907Z,1
2022-09-20T07:14:05.630Z,0.8
2022-09-20T07:15:15.245Z,1
2022-09-20T07:16:23.956Z,1.1
2022-09-20T07:17:34.626Z,1
2022-09-20T07:18:42.311Z,1.2
2022-09-20T07:19:51.001Z,2.1
2022-09-20T07:20:59.693Z,8.3
2022-09-20T07:22:09.379Z,9.7
2022-09-20T07:23:19.071Z,2.1
2022-09-20T07:24:26.748Z,0.8
2022-09-20T07:25:35.469Z,0.9
2022-09-20T07:26:45.191Z,0.9
2022-09-20T07:27:53.863Z,0.8
2022-09-20T07:29:02.556Z,0.8
2022-09-20T07:30:12.195Z,0.9
2022-09-20T07:31:20.916Z,0.6
2022-09-20T07:32:30.570Z,0.7
2022-09-20T07:33:39.225Z,0.8
2022-09-20T07:34:46.885Z,0.8
2022-09-20T07:35:56.560Z,0.7
2022-09-20T07:37:05.214Z,0.9
2022-09-20T07:38:14.922Z,0.7
2022-09-20T07:39:24.595Z,0.5
2022-09-20T07:40:33.293Z,1.1
2022-09-20T07:41:43.028Z,1.1
2022-09-20T07:42:55.563Z,0.8
2022-09-20T07:44:00.487Z,0.8
2022-09-20T07:45:09.223Z,0.9
2022-09-20T07:46:18.926Z,0.8
2022-09-20T07:47:28.609Z,1.1
2022-09-20T07:48:37.261Z,0.8
2022-09-20T07:49:45.978Z,0.7
2022-09-20T07:50:55.623Z,1.2
2022-09-20T07:52:03.292Z,1
2022-09-20T07:53:12.966Z,1.3
2022-09-20T07:54:21.608Z,1.4
2022-09-20T07:55:29.293Z,1.4
2022-09-20T07:56:38.954Z,1.4
2022-09-20T07:57:47.616Z,1.7
2022-09-20T07:58:57.283Z,1.4
2022-09-20T08:00:06.968Z,1.5
2022-09-20T08:01:15.715Z,1.4
2022-09-20T08:02:26.344Z,1.6
2022-09-20T08:03:34.983Z,1.1
2022-09-20T08:04:42.672Z,0.9
2022-09-20T08:05:52.445Z,1
2022-09-20T08:07:01.120Z,1
2022-09-20T08:08:10.832Z,1
2022-09-20T08:09:20.529Z,0.9
2022-09-20T08:10:29.231Z,1.1
2022-09-20T08:11:38.902Z,0.9
2022-09-20T08:14:07.976Z,0.8
2022-09-20T08:15:11.960Z,0.7
2022-09-20T08:16:20.162Z,1.2
2022-09-20T08:17:29.806Z,1
2022-09-20T08:18:39.547Z,0.8
2022-09-20T08:19:48.478Z,0.8
2022-09-20T08:20:58.234Z,0.9
2022-09-20T08:22:07.025Z,0.6
2022-09-20T08:23:23.595Z,0.8
2022-09-20T08:24:27.595Z,0.9
2022-09-20T08:25:35.320Z,0.7
2022-09-20T08:26:44.170Z,0.8
2022-09-20T08:27:53.953Z,0.9
2022-09-20T08:29:03.961Z,0.9
2022-09-20T08:30:12.660Z,1.2
2022-09-20T08:31:21.434Z,0.9
2022-09-20T08:32:29.167Z,1.1
2022-09-20T08:33:39.867Z,0.8
2022-09-20T08:34:49.641Z,0.8
2022-09-20T08:35:58.280Z,0.9
2022-09-20T08:37:08.032Z,1
2022-09-20T08:40:39.440Z,1.4
2022-09-20T08:41:47.147Z,1.9
2022-09-20T08:42:56.820Z,1.8
2022-09-20T08:44:05.669Z,1.2
2022-09-20T08:45:22.156Z,1.5
2022-09-20T08:46:25.090Z,0.8
2022-09-20T08:47:32.962Z,0.9
2022-09-20T08:48:42.657Z,0.9
2022-09-20T08:49:56.631Z,0.8
2022-09-20T08:51:05.579Z,0.9
2022-09-20T08:52:12.737Z,0.7
2022-09-20T08:53:21.647Z,0.8
2022-09-20T08:54:32.682Z,0.9
2022-09-20T08:55:41.762Z,1
2022-09-20T08:56:50.444Z,1
2022-09-20T08:58:00.132Z,0.9
2022-09-20T08:59:08.899Z,0.9
2022-09-20T09:00:16.584Z,0.8
2022-09-20T09:01:26.320Z,1
2022-09-20T09:02:36.069Z,1.4
2022-09-20T09:03:44.811Z,1.3
2022-09-20T09:04:54.497Z,0.6
2022-09-20T09:06:07.574Z,0.8
2022-09-20T09:07:14.885Z,1.1
2022-09-20T09:08:24.576Z,0.8
2022-09-20T09:09:37.514Z,0.8
2022-09-20T09:10:43.226Z,1
2022-09-20T09:11:51.592Z,1
2022-09-20T09:13:00.266Z,1.3
2022-09-20T09:14:09.975Z,0.9
2022-09-20T09:15:19.638Z,1.2
2022-09-20T09:16:34.936Z,1.1
2022-09-20T09:17:39.015Z,1.2
2022-09-20T09:18:47.658Z,1.4
2022-09-20T09:19:57.358Z,1.4
2022-09-20T09:21:05.119Z,1.2
2022-09-20T09:22:13.805Z,1.3
2022-09-20T09:23:22.496Z,1.2
2022-09-20T09:24:30.143Z,1.2
2022-09-20T09:25:39.840Z,1.5
2022-09-20T09:26:48.539Z,1.3
2022-09-20T09:27:58.234Z,1.4
2022-09-20T09:29:07.922Z,1.1
2022-09-20T09:30:17.620Z,1.3
2022-09-20T09:31:27.420Z,1.3
2022-09-20T09:32:37.074Z,1.3
2022-09-20T09:33:45.775Z,1.4
2022-09-20T09:34:55.484Z,1.1
2022-09-20T09:36:04.189Z,1.3
2022-09-20T09:37:12.861Z,1.3
2022-09-20T09:38:22.556Z,1.6
2022-09-20T09:39:31.256Z,1.2
2022-09-20T09:40:40.012Z,1.3
2022-09-20T09:41:49.619Z,1.1
2022-09-20T09:42:58.286Z,1.3
2022-09-20T09:44:08.005Z,1.6
2022-09-20T09:45:16.736Z,1.5
2022-09-20T09:46:26.430Z,1.3
2022-09-20T09:47:35.086Z,1.3
2022-09-20T09:48:42.736Z,1.2
2022-09-20T09:49:55.468Z,0.7
2022-09-20T09:51:01.170Z,0.6
2022-09-20T09:52:09.895Z,1
2022-09-20T09:53:19.597Z,1
2022-09-20T09:54:28.340Z,0.9
2022-09-20T09:55:37.035Z,0.9
2022-09-20T09:56:45.714Z,0.6
2022-09-20T09:57:53.389Z,1
2022-09-20T09:59:03.057Z,0.7
2022-09-20T10:00:18.838Z,0.8
2022-09-20T10:01:22.474Z,0.6
2022-09-20T10:02:32.090Z,0.6
2022-09-20T10:03:40.803Z,0.5
2022-09-20T10:04:49.494Z,1
2022-09-20T10:05:58.191Z,0.8
2022-09-20T10:07:06.854Z,0.7
2022-09-20T10:08:16.585Z,0.5
2022-09-20T10:09:25.319Z,0.6
2022-09-20T10:10:34.002Z,0.6
2022-09-20T10:11:43.683Z,0.4
2022-09-20T10:12:52.391Z,0.5
2022-09-20T10:14:02.124Z,0.8
2022-09-20T10:15:12.795Z,0.4
2022-09-20T10:16:20.511Z,0.6
2022-09-20T10:17:29.149Z,0.5
2022-09-20T10:18:37.830Z,0.4
2022-09-20T10:19:46.564Z,0.4
2022-09-20T10:20:56.199Z,0.6
2022-09-20T10:22:04.881Z,0.5
2022-09-20T10:24:24.291Z,0.4
2022-09-20T10:25:32.975Z,0.5
2022-09-20T10:26:42.645Z,0.7
2022-09-20T10:27:50.323Z,0.6
2022-09-20T10:28:58.991Z,0.4
2022-09-20T10:30:08.663Z,0.3
2022-09-20T10:31:16.418Z,0.4
2022-09-20T10:32:25.034Z,0.7
2022-09-20T10:33:34.695Z,0.7
2022-09-20T10:34:44.354Z,0.5
2022-09-20T10:35:54.055Z,0.6
2022-09-20T10:37:01.781Z,0.7
2022-09-20T10:38:11.470Z,0.6
2022-09-20T10:39:21.147Z,0.6
2022-09-20T10:40:28.901Z,0.7
2022-09-20T10:41:38.490Z,0.7
2022-09-20T10:42:47.161Z,0.7
2022-09-20T10:43:55.967Z,0.6
2022-09-20T10:45:05.592Z,0.7
2022-09-20T10:46:31.168Z,0.6
2022-09-20T10:47:23.960Z,0.5
2022-09-20T10:48:33.586Z,0.4
2022-09-20T10:49:41.241Z,0.6
2022-09-20T10:50:50.981Z,0.5
2022-09-20T10:52:00.660Z,0.8
2022-09-20T10:53:09.351Z,0.4
2022-09-20T10:54:19.141Z,0.7
2022-09-20T10:55:27.792Z,0.5
2022-09-20T10:56:36.482Z,0.8
2022-09-20T10:57:46.914Z,0.5
2022-09-20T10:58:53.820Z,0.5
2022-09-20T11:00:03.462Z,0.7
2022-09-20T11:01:12.191Z,0.5
2022-09-20T11:02:20.793Z,0.3
2022-09-20T11:03:30.471Z,0.3
2022-09-20T11:04:39.136Z,0.2
2022-09-20T11:05:47.802Z,0.4
2022-09-20T11:06:57.454Z,0.4
2022-09-20T11:08:07.257Z,0.4
2022-09-20T11:09:16.911Z,0.4
2022-09-20T11:10:26.606Z,0.4
2022-09-20T11:11:34.260Z,0.2
2022-09-20T11:12:44.005Z,0.2
2022-09-20T11:13:52.700Z,0.3
2022-09-20T11:15:01.336Z,0.3
2022-09-20T11:16:11.039Z,0.5
2022-09-20T11:17:18.727Z,0.2
2022-09-20T11:18:26.391Z,0.5
2022-09-20T11:19:36.077Z,0.4
2022-09-20T11:20:43.732Z,0.4
2022-09-20T11:21:53.393Z,0.5
2022-09-20T11:23:02.190Z,0.4
2022-09-20T11:24:09.869Z,0.4
2022-09-20T11:25:21.032Z,0.3
2022-09-20T11:26:28.205Z,0.3
2022-09-20T11:27:37.866Z,0.5
2022-09-20T11:28:46.567Z,0.4
2022-09-20T11:29:54.214Z,0.5
2022-09-20T11:31:02.878Z,0.7
2022-09-20T11:32:13.748Z,0.5
2022-09-20T11:33:21.192Z,0.6
2022-09-20T11:34:30.890Z,0.5
2022-09-20T11:35:38.583Z,0.5
2022-09-20T11:36:47.254Z,0.6
2022-09-20T11:37:57.020Z,0.5
2022-09-20T11:39:05.771Z,0.5
2022-09-20T11:40:15.488Z,0.5
2022-09-20T11:41:24.104Z,0.3
2022-09-20T11:42:33.802Z,0.3
2022-09-20T11:43:42.442Z,0.4
2022-09-20T11:44:50.138Z,0.3
2022-09-20T11:45:59.903Z,0.5
2022-09-20T11:47:09.519Z,0.4
2022-09-20T11:48:18.198Z,0.4
2022-09-20T11:49:27.858Z,0.5
2022-09-20T11:50:35.516Z,0.4
2022-09-20T11:51:45.209Z,0.3
2022-09-20T11:52:53.889Z,0.4
2022-09-20T11:54:01.586Z,0.5
2022-09-20T11:55:11.254Z,0.7
2022-09-20T11:56:20.922Z,0.4
2022-09-20T11:57:29.642Z,0.3
2022-09-20T11:58:39.323Z,0.4
2022-09-20T11:59:46.970Z,0.3
2022-09-20T12:00:56.683Z,0.3
2022-09-20T12:02:05.456Z,0.3
2022-09-20T12:03:14.207Z,0.5
2022-09-20T12:04:33.142Z,0.3
2022-09-20T12:05:32.683Z,0.4
2022-09-20T12:06:41.365Z,0.6
2022-09-20T12:07:51.061Z,0.6
2022-09-20T12:08:58.928Z,0.6
2022-09-20T12:10:08.741Z,0.9
2022-09-20T12:11:17.412Z,0.7
2022-09-20T12:12:25.100Z,0.4
2022-09-20T12:13:34.897Z,0.3
2022-09-20T12:14:43.698Z,0.3
2022-09-20T12:15:53.476Z,0.5
2022-09-20T12:17:03.163Z,0.5
2022-09-20T12:18:12.863Z,0.5
2022-09-20T12:19:22.595Z,0.4
2022-09-20T12:20:31.324Z,0.6
2022-09-20T12:21:38.001Z,0.4
2022-09-20T12:22:46.718Z,0.5
2022-09-20T12:23:55.447Z,0.6
2022-09-20T12:25:04.194Z,1
2022-09-20T12:26:13.960Z,0.5
2022-09-20T12:27:22.700Z,0.5
2022-09-20T12:28:32.393Z,0.2
2022-09-20T12:29:41.119Z,0.4
2022-09-20T12:30:49.837Z,0.3
2022-09-20T12:31:59.551Z,0.6
2022-09-20T12:33:07.216Z,0.4
2022-09-20T12:34:15.943Z,0.5
2022-09-20T12:35:25.584Z,0.4
2022-09-20T12:36:33.349Z,0.4
2022-09-20T12:37:43.079Z,0.4
2022-09-20T12:38:53.742Z,0.5
2022-09-20T12:40:02.614Z,0.4
2022-09-20T12:41:11.287Z,0.5
2022-09-20T12:42:26.908Z,0.6
2022-09-20T12:43:36.652Z,0.6
2022-09-20T12:44:46.532Z,0.4
2022-09-20T12:45:54.243Z,0.3
2022-09-20T12:47:03.886Z,0.3
2022-09-20T12:48:12.692Z,0.3
2022-09-20T12:49:21.424Z,0.4
2022-09-20T12:50:31.230Z,0.3
2022-09-20T12:51:40.945Z,0.3
2022-09-20T12:52:49.685Z,0.6
2022-09-20T12:53:59.491Z,0.8
2022-09-20T12:55:11.169Z,0.4
2022-09-20T12:56:20.022Z,0.3
2022-09-20T12:57:28.721Z,0.5
2022-09-20T12:58:37.463Z,0.4
2022-09-20T12:59:47.251Z,0.4
2022-09-20T13:00:55.026Z,0.4
2022-09-20T13:02:03.825Z,0.5
2022-09-20T13:03:13.399Z,0.4
2022-09-20T13:04:22.443Z,0.4
2022-09-20T13:05:32.272Z,0.5
2022-09-20T13:06:41.180Z,0.4
2022-09-20T13:07:51.050Z,0.4
2022-09-20T13:09:00.784Z,0.3
2022-09-20T13:10:09.517Z,0.3
2022-09-20T13:11:18.272Z,0.3
2022-09-20T13:12:28.198Z,0.5
2022-09-20T13:13:36.955Z,0.4
2022-09-20T13:14:46.713Z,0.3
2022-09-20T13:15:56.578Z,0.4
2022-09-20T13:17:05.284Z,0.3
2022-09-20T13:18:15.068Z,0.4
2022-09-20T13:19:22.705Z,0.3
2022-09-20T13:20:31.480Z,0.3
2022-09-20T13:21:41.196Z,0.4
2022-09-20T13:22:48.948Z,0.4
2022-09-20T13:23:58.809Z,0.3
2022-09-20T13:25:08.526Z,0.3
2022-09-20T13:26:17.325Z,0.4
2022-09-20T13:27:27.110Z,0.4
2022-09-20T13:28:35.827Z,0.3
2022-09-20T13:29:45.518Z,0.3
2022-09-20T13:30:55.183Z,0.4
2022-09-20T13:32:03.863Z,0.3
2022-09-20T13:33:13.522Z,0.3
2022-09-20T13:34:23.197Z,0.4
2022-09-20T13:35:31.884Z,0.4
2022-09-20T13:36:41.548Z,0.3
2022-09-20T13:37:52.219Z,0.4
2022-09-20T13:39:01.869Z,0.2
2022-09-20T13:40:10.591Z,0.3
2022-09-20T13:41:19.251Z,0.4
2022-09-20T13:42:28.974Z,0.4
2022-09-20T13:43:37.547Z,0.4
2022-09-20T13:44:46.204Z,0.6
2022-09-20T13:45:54.876Z,0.3
2022-09-20T13:47:04.547Z,0.3
2022-09-20T13:48:14.239Z,0.4
2022-09-20T13:49:22.902Z,0.4
2022-09-20T13:50:32.606Z,0.3
2022-09-20T13:51:42.322Z,0.5
2022-09-20T13:52:50.047Z,0.4
2022-09-20T13:53:59.722Z,0.4
2022-09-20T13:55:09.372Z,0.3
2022-09-20T13:56:18.036Z,0.4
2022-09-20T13:57:27.693Z,0.3
2022-09-20T13:58:36.378Z,0.2
2022-09-20T13:59:46.026Z,0.4
2022-09-20T14:00:55.831Z,0.5
2022-09-20T14:02:03.491Z,0.3
2022-09-20T14:03:12.123Z,0.2
2022-09-20T14:04:20.854Z,0.3
2022-09-20T14:05:29.510Z,0.2
2022-09-20T14:06:39.179Z,0.2
2022-09-20T14:07:46.812Z,0.3
2022-09-20T14:08:55.487Z,0.3
2022-09-20T14:10:05.184Z,0.3
2022-09-20T14:11:12.844Z,0.2
2022-09-20T14:12:22.497Z,0.3
2022-09-20T14:13:31.185Z,0.3
2022-09-20T14:14:38.858Z,0.4
2022-09-20T14:15:48.535Z,0.4
2022-09-20T14:16:56.189Z,0.6
2022-09-20T14:18:05.842Z,0.4
2022-09-20T14:19:15.535Z,0.3
2022-09-20T14:20:25.156Z,0.7
2022-09-20T14:21:34.850Z,0.2
2022-09-20T14:22:43.527Z,0.3
2022-09-20T14:23:52.166Z,0.4
2022-09-20T14:25:01.893Z,0.4
2022-09-20T14:26:11.543Z,0.3
2022-09-20T14:27:20.329Z,0.4
2022-09-20T14:28:29.962Z,0.4
2022-09-20T14:29:38.645Z,0.3
2022-09-20T14:30:48.311Z,0.3
2022-09-20T14:31:56.965Z,0.4
2022-09-20T14:33:05.667Z,0.4
2022-09-20T14:34:15.333Z,0.5
2022-09-20T14:35:25.012Z,0.4
2022-09-20T14:36:33.679Z,0.5
2022-09-20T14:37:42.340Z,0.3
2022-09-20T14:38:52.061Z,0.2
2022-09-20T14:39:59.721Z,0.2
2022-09-20T14:41:09.348Z,0.3
2022-09-20T14:42:18.013Z,0.3
2022-09-20T14:43:25.681Z,0.6
2022-09-20T14:44:35.383Z,0.8
2022-09-20T14:45:43.079Z,0.5
2022-09-20T14:46:51.709Z,0.7
2022-09-20T14:48:01.362Z,1
2022-09-20T14:49:10.017Z,0.6
2022-09-20T14:50:19.716Z,0.3
2022-09-20T14:51:28.385Z,0.4
2022-09-20T14:52:37.040Z,0.4
2022-09-20T14:53:46.725Z,0.5
2022-09-20T14:54:55.438Z,0.5
2022-09-20T14:56:04.132Z,0.4
2022-09-20T14:57:13.767Z,0.3
2022-09-20T14:58:22.473Z,0.4
2022-09-20T14:59:32.138Z,0.4
2022-09-20T15:00:40.840Z,0.2
2022-09-20T15:01:48.491Z,0.6
2022-09-20T15:02:58.197Z,0.6
2022-09-20T15:04:06.981Z,0.6
2022-09-20T15:05:15.516Z,0.6
2022-09-20T15:06:25.190Z,0.6
2022-09-20T15:07:34.998Z,0.6
2022-09-20T15:08:46.654Z,0.7
2022-09-20T15:09:53.301Z,0.5
2022-09-20T15:11:01.987Z,0.4
2022-09-20T15:12:11.629Z,0.6
2022-09-20T15:13:19.300Z,0.5
2022-09-20T15:14:27.951Z,0.3
2022-09-20T15:15:37.615Z,0.4
2022-09-20T15:16:45.332Z,0.4
2022-09-20T15:17:54.935Z,0.5
2022-09-20T15:19:04.743Z,0.6
2022-09-20T15:20:13.306Z,0.5
2022-09-20T15:21:21.986Z,0.4
2022-09-20T15:22:30.650Z,0.3
2022-09-20T15:23:39.389Z,0.7
2022-09-20T15:24:49.021Z,0.7
2022-09-20T15:25:58.681Z,0.5
2022-09-20T15:27:08.485Z,2.5
2022-09-20T15:28:17.024Z,0.4
2022-09-20T15:29:26.682Z,0.5
2022-09-20T15:30:36.381Z,0.3
2022-09-20T15:31:45.126Z,0.4
2022-09-20T15:32:54.777Z,0.3
2022-09-20T15:34:04.410Z,0.4
2022-09-20T15:35:13.275Z,0.5
2022-09-20T15:36:22.993Z,0.4
2022-09-20T15:37:31.639Z,0.6
2022-09-20T15:38:41.335Z,0.5
2022-09-20T15:39:49.955Z,0.5
2022-09-20T15:40:58.965Z,0.4
2022-09-20T15:42:08.549Z,0.4
2022-09-20T15:43:17.248Z,0.3
2022-09-20T15:44:26.926Z,0.3
2022-09-20T15:45:36.618Z,0.5
2022-09-20T15:46:45.239Z,0.3
2022-09-20T15:47:54.966Z,0.6
2022-09-20T15:49:03.652Z,0.4
2022-09-20T15:50:11.310Z,0.5
2022-09-20T15:51:20.042Z,0.4
2022-09-20T15:52:28.709Z,0.3
2022-09-20T15:53:38.457Z,0.8
2022-09-20T15:54:48.170Z,0.5
2022-09-20T15:55:57.883Z,0.5
2022-09-20T15:57:07.546Z,0.7
2022-09-20T15:58:16.230Z,1
2022-09-20T15:59:25.951Z,1.5
2022-09-20T16:00:35.579Z,0.9
2022-09-20T16:01:44.263Z,0.6